Terminal Aerodrome Forecast
Issued by NWS

Home | Current Version | Previous Version | Text Only | Print | Product List | Glossary On
Versions: 1 2 3 4 5 6 7 8 9 10 11 12 13 14 15
842
FTUS43 KTOP 122333
TAFMHK
TAF
KMHK 122333Z 1300/1324 24006KT P6SM SKC
     FM130800 23007KT P6SM SKC WS017/29045KT
     FM131300 27008KT P6SM FEW250
     FM131600 30013G22KT P6SM FEW250
     FM132000 33020G29KT P6SM SKC=

USA.gov is the U.S. government's official web portal to all federal, state and local government web resources and services.